sensor_id;sensor_type;location;lat;lon;timestamp;temperature;humidity
17370;DHT22;8802;52.402;4.920;2023-07-29T00:01:30;22.00;99.90
17370;DHT22;8802;52.402;4.920;2023-07-29T00:03:57;21.90;99.90
17370;DHT22;8802;52.402;4.920;2023-07-29T00:06:24;21.90;99.90
17370;DHT22;8802;52.402;4.920;2023-07-29T00:08:51;21.90;99.90
17370;DHT22;8802;52.402;4.920;2023-07-29T00:11:19;21.90;99.90
17370;DHT22;8802;52.402;4.920;2023-07-29T00:13:46;21.90;99.90
17370;DHT22;8802;52.402;4.920;2023-07-29T00:16:15;21.90;99.90
17370;DHT22;8802;52.402;4.920;2023-07-29T00:18:42;21.80;99.90
17370;DHT22;8802;52.402;4.920;2023-07-29T00:21:09;21.80;99.90
17370;DHT22;8802;52.402;4.920;2023-07-29T00:23:36;21.80;99.90
17370;DHT22;8802;52.402;4.920;2023-07-29T00:26:03;21.80;99.90
17370;DHT22;8802;52.402;4.920;2023-07-29T00:28:31;21.80;99.90
17370;DHT22;8802;52.402;4.920;2023-07-29T00:30:58;21.80;99.90
17370;DHT22;8802;52.402;4.920;2023-07-29T00:33:25;21.80;99.90
17370;DHT22;8802;52.402;4.920;2023-07-29T00:35:52;21.80;99.90
17370;DHT22;8802;52.402;4.920;2023-07-29T00:38:19;21.80;99.90
17370;DHT22;8802;52.402;4.920;2023-07-29T00:40:46;21.80;99.90
17370;DHT22;8802;52.402;4.920;2023-07-29T00:43:13;21.80;99.90
17370;DHT22;8802;52.402;4.920;2023-07-29T00:45:41;21.80;99.90
17370;DHT22;8802;52.402;4.920;2023-07-29T00:48:09;21.80;99.90
17370;DHT22;8802;52.402;4.920;2023-07-29T00:50:36;21.80;99.90
17370;DHT22;8802;52.402;4.920;2023-07-29T00:53:03;21.70;99.90
17370;DHT22;8802;52.402;4.920;2023-07-29T00:55:30;21.70;99.90
17370;DHT22;8802;52.402;4.920;2023-07-29T00:57:57;21.70;99.90
17370;DHT22;8802;52.402;4.920;2023-07-29T01:00:24;21.70;99.90
17370;DHT22;8802;52.402;4.920;2023-07-29T01:02:53;21.70;99.90
17370;DHT22;8802;52.402;4.920;2023-07-29T01:05:20;21.70;99.90
17370;DHT22;8802;52.402;4.920;2023-07-29T01:07:53;21.70;99.90
17370;DHT22;8802;52.402;4.920;2023-07-29T01:10:30;21.70;99.90
17370;DHT22;8802;52.402;4.920;2023-07-29T01:13:06;21.70;99.90
17370;DHT22;8802;52.402;4.920;2023-07-29T01:15:40;21.70;99.90
17370;DHT22;8802;52.402;4.920;2023-07-29T01:18:15;21.70;99.80
17370;DHT22;8802;52.402;4.920;2023-07-29T01:20:46;21.70;99.80
17370;DHT22;8802;52.402;4.920;2023-07-29T01:23:16;21.70;99.80
17370;DHT22;8802;52.402;4.920;2023-07-29T01:25:44;21.70;99.60
17370;DHT22;8802;52.402;4.920;2023-07-29T01:28:11;21.70;99.70
17370;DHT22;8802;52.402;4.920;2023-07-29T01:30:40;21.70;99.50
17370;DHT22;8802;52.402;4.920;2023-07-29T01:33:10;21.70;99.50
17370;DHT22;8802;52.402;4.920;2023-07-29T01:35:43;21.70;99.50
17370;DHT22;8802;52.402;4.920;2023-07-29T01:38:14;21.70;99.50
17370;DHT22;8802;52.402;4.920;2023-07-29T01:40:45;21.70;99.50
17370;DHT22;8802;52.402;4.920;2023-07-29T01:43:12;21.70;99.40
17370;DHT22;8802;52.402;4.920;2023-07-29T01:45:40;21.70;99.30
17370;DHT22;8802;52.402;4.920;2023-07-29T01:48:07;21.70;99.70
17370;DHT22;8802;52.402;4.920;2023-07-29T01:50:34;21.70;99.40
17370;DHT22;8802;52.402;4.920;2023-07-29T01:53:01;21.70;99.30
17370;DHT22;8802;52.402;4.920;2023-07-29T01:55:29;21.70;99.70
17370;DHT22;8802;52.402;4.920;2023-07-29T01:57:57;21.70;99.30
17370;DHT22;8802;52.402;4.920;2023-07-29T02:00:24;21.60;99.40
17370;DHT22;8802;52.402;4.920;2023-07-29T02:02:50;21.70;99.30
17370;DHT22;8802;52.402;4.920;2023-07-29T02:05:18;21.60;99.30
17370;DHT22;8802;52.402;4.920;2023-07-29T02:07:44;21.60;99.30
17370;DHT22;8802;52.402;4.920;2023-07-29T02:10:11;21.60;99.30
17370;DHT22;8802;52.402;4.920;2023-07-29T02:12:38;21.60;99.30
17370;DHT22;8802;52.402;4.920;2023-07-29T02:15:07;21.60;99.40
17370;DHT22;8802;52.402;4.920;2023-07-29T02:17:35;21.60;99.40
17370;DHT22;8802;52.402;4.920;2023-07-29T02:20:02;21.60;99.40
17370;DHT22;8802;52.402;4.920;2023-07-29T02:22:30;21.60;99.30
17370;DHT22;8802;52.402;4.920;2023-07-29T02:24:56;21.60;99.40
17370;DHT22;8802;52.402;4.920;2023-07-29T02:27:23;21.60;99.30
17370;DHT22;8802;52.402;4.920;2023-07-29T02:29:52;21.50;99.30
17370;DHT22;8802;52.402;4.920;2023-07-29T02:32:20;21.50;99.30
17370;DHT22;8802;52.402;4.920;2023-07-29T02:34:49;21.50;99.30
17370;DHT22;8802;52.402;4.920;2023-07-29T02:37:16;21.50;99.10
17370;DHT22;8802;52.402;4.920;2023-07-29T02:39:43;21.50;99.20
17370;DHT22;8802;52.402;4.920;2023-07-29T02:42:10;21.50;99.30
17370;DHT22;8802;52.402;4.920;2023-07-29T02:44:36;21.50;99.30
17370;DHT22;8802;52.402;4.920;2023-07-29T02:47:03;21.40;99.30
17370;DHT22;8802;52.402;4.920;2023-07-29T02:49:32;21.40;99.40
17370;DHT22;8802;52.402;4.920;2023-07-29T02:51:58;21.40;99.40
17370;DHT22;8802;52.402;4.920;2023-07-29T02:54:25;21.40;99.40
17370;DHT22;8802;52.402;4.920;2023-07-29T02:56:53;21.40;99.50
17370;DHT22;8802;52.402;4.920;2023-07-29T02:59:20;21.40;99.50
17370;DHT22;8802;52.402;4.920;2023-07-29T03:01:47;21.40;99.60
17370;DHT22;8802;52.402;4.920;2023-07-29T03:04:14;21.30;99.60
17370;DHT22;8802;52.402;4.920;2023-07-29T03:06:42;21.40;99.70
17370;DHT22;8802;52.402;4.920;2023-07-29T03:09:09;21.30;99.80
17370;DHT22;8802;52.402;4.920;2023-07-29T03:11:36;21.30;99.80
17370;DHT22;8802;52.402;4.920;2023-07-29T03:14:03;21.30;99.80
17370;DHT22;8802;52.402;4.920;2023-07-29T03:16:29;21.30;99.80
17370;DHT22;8802;52.402;4.920;2023-07-29T03:18:56;21.30;99.90
17370;DHT22;8802;52.402;4.920;2023-07-29T03:21:25;21.20;99.80
17370;DHT22;8802;52.402;4.920;2023-07-29T03:23:54;21.20;99.90
17370;DHT22;8802;52.402;4.920;2023-07-29T03:26:20;21.20;99.90
17370;DHT22;8802;52.402;4.920;2023-07-29T03:28:47;21.20;99.90
17370;DHT22;8802;52.402;4.920;2023-07-29T03:31:14;21.20;99.90
17370;DHT22;8802;52.402;4.920;2023-07-29T03:33:41;21.20;99.90
17370;DHT22;8802;52.402;4.920;2023-07-29T03:36:08;21.20;99.90
17370;DHT22;8802;52.402;4.920;2023-07-29T03:38:35;21.20;99.90
17370;DHT22;8802;52.402;4.920;2023-07-29T03:41:06;21.20;99.90
17370;DHT22;8802;52.402;4.920;2023-07-29T03:43:34;21.20;99.90
17370;DHT22;8802;52.402;4.920;2023-07-29T03:46:01;21.20;99.90
17370;DHT22;8802;52.402;4.920;2023-07-29T03:48:28;21.20;99.90
17370;DHT22;8802;52.402;4.920;2023-07-29T03:50:54;21.20;99.90
17370;DHT22;8802;52.402;4.920;2023-07-29T03:53:21;21.20;99.90
17370;DHT22;8802;52.402;4.920;2023-07-29T03:55:48;21.10;99.90
17370;DHT22;8802;52.402;4.920;2023-07-29T03:58:17;21.10;99.90
17370;DHT22;8802;52.402;4.920;2023-07-29T04:00:44;21.10;99.90
17370;DHT22;8802;52.402;4.920;2023-07-29T04:03:11;21.10;99.90
17370;DHT22;8802;52.402;4.920;2023-07-29T04:05:38;21.10;99.90
17370;DHT22;8802;52.402;4.920;2023-07-29T04:08:05;21.10;99.90
17370;DHT22;8802;52.402;4.920;2023-07-29T04:10:32;21.10;99.90
17370;DHT22;8802;52.402;4.920;2023-07-29T04:13:00;21.10;99.90
17370;DHT22;8802;52.402;4.920;2023-07-29T04:15:28;21.10;99.90
17370;DHT22;8802;52.402;4.920;2023-07-29T04:17:56;21.10;99.90
17370;DHT22;8802;52.402;4.920;2023-07-29T04:20:23;21.10;99.90
17370;DHT22;8802;52.402;4.920;2023-07-29T04:22:49;21.10;99.90
17370;DHT22;8802;52.402;4.920;2023-07-29T04:25:16;21.10;99.90
17370;DHT22;8802;52.402;4.920;2023-07-29T04:27:42;21.10;99.90
17370;DHT22;8802;52.402;4.920;2023-07-29T04:30:09;21.10;99.90
17370;DHT22;8802;52.402;4.920;2023-07-29T04:32:37;21.00;99.90
17370;DHT22;8802;52.402;4.920;2023-07-29T04:35:05;21.10;99.90
17370;DHT22;8802;52.402;4.920;2023-07-29T04:37:32;21.00;99.90
17370;DHT22;8802;52.402;4.920;2023-07-29T04:39:59;21.10;99.90
17370;DHT22;8802;52.402;4.920;2023-07-29T04:42:26;21.10;99.90
17370;DHT22;8802;52.402;4.920;2023-07-29T04:44:53;21.00;99.90
17370;DHT22;8802;52.402;4.920;2023-07-29T04:47:20;21.00;99.90
17370;DHT22;8802;52.402;4.920;2023-07-29T04:49:48;21.00;99.90
17370;DHT22;8802;52.402;4.920;2023-07-29T04:52:15;21.00;99.90
17370;DHT22;8802;52.402;4.920;2023-07-29T04:54:42;21.00;99.90
17370;DHT22;8802;52.402;4.920;2023-07-29T04:57:09;21.10;99.90
17370;DHT22;8802;52.402;4.920;2023-07-29T04:59:36;21.00;99.90
17370;DHT22;8802;52.402;4.920;2023-07-29T05:02:04;21.00;99.90
17370;DHT22;8802;52.402;4.920;2023-07-29T05:04:31;21.00;99.90
17370;DHT22;8802;52.402;4.920;2023-07-29T05:06:59;21.10;99.90
17370;DHT22;8802;52.402;4.920;2023-07-29T05:09:26;21.10;99.90
17370;DHT22;8802;52.402;4.920;2023-07-29T05:11:53;21.10;99.90
17370;DHT22;8802;52.402;4.920;2023-07-29T05:14:19;21.10;99.90
17370;DHT22;8802;52.402;4.920;2023-07-29T05:16:46;21.10;99.90
17370;DHT22;8802;52.402;4.920;2023-07-29T05:19:13;21.10;99.90
17370;DHT22;8802;52.402;4.920;2023-07-29T05:21:40;21.10;99.90
17370;DHT22;8802;52.402;4.920;2023-07-29T05:24:08;21.10;99.90
17370;DHT22;8802;52.402;4.920;2023-07-29T05:26:35;21.20;99.90
17370;DHT22;8802;52.402;4.920;2023-07-29T05:29:02;21.20;99.90
17370;DHT22;8802;52.402;4.920;2023-07-29T05:31:29;21.20;99.90
17370;DHT22;8802;52.402;4.920;2023-07-29T05:33:56;21.20;99.90
17370;DHT22;8802;52.402;4.920;2023-07-29T05:36:23;21.20;99.90
17370;DHT22;8802;52.402;4.920;2023-07-29T05:38:50;21.20;99.90
17370;DHT22;8802;52.402;4.920;2023-07-29T05:41:19;21.20;99.90
17370;DHT22;8802;52.402;4.920;2023-07-29T05:43:46;21.30;99.90
17370;DHT22;8802;52.402;4.920;2023-07-29T05:46:13;21.30;99.90
17370;DHT22;8802;52.402;4.920;2023-07-29T05:48:40;21.30;99.90
17370;DHT22;8802;52.402;4.920;2023-07-29T05:51:07;21.30;99.90
17370;DHT22;8802;52.402;4.920;2023-07-29T05:53:34;21.30;99.90
17370;DHT22;8802;52.402;4.920;2023-07-29T05:56:01;21.30;99.90
17370;DHT22;8802;52.402;4.920;2023-07-29T05:58:29;21.30;99.90
17370;DHT22;8802;52.402;4.920;2023-07-29T06:00:56;21.40;99.90
17370;DHT22;8802;52.402;4.920;2023-07-29T06:03:23;21.40;99.90
17370;DHT22;8802;52.402;4.920;2023-07-29T06:05:50;21.40;99.90
17370;DHT22;8802;52.402;4.920;2023-07-29T06:08:17;21.40;99.90
17370;DHT22;8802;52.402;4.920;2023-07-29T06:10:44;21.50;99.90
17370;DHT22;8802;52.402;4.920;2023-07-29T06:13:11;21.50;99.90
17370;DHT22;8802;52.402;4.920;2023-07-29T06:15:39;21.50;99.90
17370;DHT22;8802;52.402;4.920;2023-07-29T06:18:06;21.60;99.90
17370;DHT22;8802;52.402;4.920;2023-07-29T06:20:33;21.60;99.90
17370;DHT22;8802;52.402;4.920;2023-07-29T06:23:00;21.60;99.90
17370;DHT22;8802;52.402;4.920;2023-07-29T06:25:27;21.60;99.90
17370;DHT22;8802;52.402;4.920;2023-07-29T06:27:54;21.60;99.90
17370;DHT22;8802;52.402;4.920;2023-07-29T06:30:21;21.70;99.90
17370;DHT22;8802;52.402;4.920;2023-07-29T06:32:49;21.70;99.90
17370;DHT22;8802;52.402;4.920;2023-07-29T06:35:16;21.60;99.90
17370;DHT22;8802;52.402;4.920;2023-07-29T06:37:43;21.70;99.90
17370;DHT22;8802;52.402;4.920;2023-07-29T06:40:10;21.70;99.90
17370;DHT22;8802;52.402;4.920;2023-07-29T06:42:37;21.70;99.90
17370;DHT22;8802;52.402;4.920;2023-07-29T06:45:05;21.70;99.90
17370;DHT22;8802;52.402;4.920;2023-07-29T06:47:32;21.70;99.90
17370;DHT22;8802;52.402;4.920;2023-07-29T06:50:00;21.70;99.90
17370;DHT22;8802;52.402;4.920;2023-07-29T06:52:27;21.80;99.90
17370;DHT22;8802;52.402;4.920;2023-07-29T06:54:54;21.70;99.90
17370;DHT22;8802;52.402;4.920;2023-07-29T06:57:21;21.80;99.90
17370;DHT22;8802;52.402;4.920;2023-07-29T06:59:48;21.80;99.90
17370;DHT22;8802;52.402;4.920;2023-07-29T07:02:15;21.80;99.90
17370;DHT22;8802;52.402;4.920;2023-07-29T07:04:42;21.80;99.90
17370;DHT22;8802;52.402;4.920;2023-07-29T07:07:11;21.80;99.90
17370;DHT22;8802;52.402;4.920;2023-07-29T07:09:37;21.80;99.90
17370;DHT22;8802;52.402;4.920;2023-07-29T07:12:05;21.80;99.90
17370;DHT22;8802;52.402;4.920;2023-07-29T07:14:32;21.90;99.90
17370;DHT22;8802;52.402;4.920;2023-07-29T07:16:59;21.90;99.90
17370;DHT22;8802;52.402;4.920;2023-07-29T07:19:25;21.90;99.90
17370;DHT22;8802;52.402;4.920;2023-07-29T07:21:52;22.00;99.90
17370;DHT22;8802;52.402;4.920;2023-07-29T07:24:21;22.00;99.90
17370;DHT22;8802;52.402;4.920;2023-07-29T07:26:47;22.00;99.90
17370;DHT22;8802;52.402;4.920;2023-07-29T07:29:14;22.00;99.90
17370;DHT22;8802;52.402;4.920;2023-07-29T07:31:50;22.10;99.90
17370;DHT22;8802;52.402;4.920;2023-07-29T07:34:18;22.10;99.90
17370;DHT22;8802;52.402;4.920;2023-07-29T07:36:44;22.10;99.90
17370;DHT22;8802;52.402;4.920;2023-07-29T07:39:11;22.20;99.90
17370;DHT22;8802;52.402;4.920;2023-07-29T07:41:40;22.20;99.90
17370;DHT22;8802;52.402;4.920;2023-07-29T07:44:07;22.30;99.90
17370;DHT22;8802;52.402;4.920;2023-07-29T07:46:34;22.40;99.90
17370;DHT22;8802;52.402;4.920;2023-07-29T07:49:00;22.40;99.90
17370;DHT22;8802;52.402;4.920;2023-07-29T07:51:27;22.50;99.90
17370;DHT22;8802;52.402;4.920;2023-07-29T07:53:54;22.50;99.90
17370;DHT22;8802;52.402;4.920;2023-07-29T07:56:21;22.60;99.90
17370;DHT22;8802;52.402;4.920;2023-07-29T07:58:49;22.60;99.90
17370;DHT22;8802;52.402;4.920;2023-07-29T08:01:16;22.70;99.90
17370;DHT22;8802;52.402;4.920;2023-07-29T08:03:43;22.70;99.90
17370;DHT22;8802;52.402;4.920;2023-07-29T08:06:10;22.70;99.90
17370;DHT22;8802;52.402;4.920;2023-07-29T08:08:37;22.70;99.90
17370;DHT22;8802;52.402;4.920;2023-07-29T08:11:03;22.70;99.90
17370;DHT22;8802;52.402;4.920;2023-07-29T08:13:30;22.70;99.90
17370;DHT22;8802;52.402;4.920;2023-07-29T08:15:58;22.70;99.90
17370;DHT22;8802;52.402;4.920;2023-07-29T08:18:25;22.70;99.90
17370;DHT22;8802;52.402;4.920;2023-07-29T08:20:53;22.70;99.90
17370;DHT22;8802;52.402;4.920;2023-07-29T08:23:21;22.70;99.90
17370;DHT22;8802;52.402;4.920;2023-07-29T08:25:52;22.70;99.90
17370;DHT22;8802;52.402;4.920;2023-07-29T08:28:19;22.70;99.90
17370;DHT22;8802;52.402;4.920;2023-07-29T08:30:46;22.70;99.90
17370;DHT22;8802;52.402;4.920;2023-07-29T08:33:15;22.70;99.90
17370;DHT22;8802;52.402;4.920;2023-07-29T08:35:42;22.80;99.90
17370;DHT22;8802;52.402;4.920;2023-07-29T08:38:09;22.80;99.90
17370;DHT22;8802;52.402;4.920;2023-07-29T08:40:39;22.80;99.90
17370;DHT22;8802;52.402;4.920;2023-07-29T08:43:09;22.90;99.90
17370;DHT22;8802;52.402;4.920;2023-07-29T08:45:38;22.90;99.90
17370;DHT22;8802;52.402;4.920;2023-07-29T08:48:08;22.90;99.90
17370;DHT22;8802;52.402;4.920;2023-07-29T08:50:38;22.90;99.90
17370;DHT22;8802;52.402;4.920;2023-07-29T08:53:05;23.00;99.90
17370;DHT22;8802;52.402;4.920;2023-07-29T08:55:32;23.00;99.90
17370;DHT22;8802;52.402;4.920;2023-07-29T08:58:00;23.10;99.90
17370;DHT22;8802;52.402;4.920;2023-07-29T09:00:27;23.10;99.90
17370;DHT22;8802;52.402;4.920;2023-07-29T09:02:54;23.10;99.90
17370;DHT22;8802;52.402;4.920;2023-07-29T09:05:23;23.10;99.70
17370;DHT22;8802;52.402;4.920;2023-07-29T09:07:51;23.10;99.50
17370;DHT22;8802;52.402;4.920;2023-07-29T09:10:21;23.10;99.30
17370;DHT22;8802;52.402;4.920;2023-07-29T09:12:49;23.20;99.30
17370;DHT22;8802;52.402;4.920;2023-07-29T09:15:27;23.20;99.40
17370;DHT22;8802;52.402;4.920;2023-07-29T09:17:55;23.20;99.40
17370;DHT22;8802;52.402;4.920;2023-07-29T09:20:24;23.20;99.50
17370;DHT22;8802;52.402;4.920;2023-07-29T09:22:54;23.20;99.50
17370;DHT22;8802;52.402;4.920;2023-07-29T09:25:25;23.10;99.50
17370;DHT22;8802;52.402;4.920;2023-07-29T09:27:52;23.20;99.40
17370;DHT22;8802;52.402;4.920;2023-07-29T09:30:19;23.10;99.90
17370;DHT22;8802;52.402;4.920;2023-07-29T09:32:46;23.10;99.40
17370;DHT22;8802;52.402;4.920;2023-07-29T09:35:13;23.10;99.30
17370;DHT22;8802;52.402;4.920;2023-07-29T09:37:40;23.10;99.20
17370;DHT22;8802;52.402;4.920;2023-07-29T09:40:14;23.10;99.40
17370;DHT22;8802;52.402;4.920;2023-07-29T09:42:48;23.10;99.30
17370;DHT22;8802;52.402;4.920;2023-07-29T09:45:26;23.10;99.40
17370;DHT22;8802;52.402;4.920;2023-07-29T09:47:54;23.10;99.10
17370;DHT22;8802;52.402;4.920;2023-07-29T09:50:23;23.10;99.30
17370;DHT22;8802;52.402;4.920;2023-07-29T09:52:51;23.20;99.00
17370;DHT22;8802;52.402;4.920;2023-07-29T09:55:21;23.20;99.20
17370;DHT22;8802;52.402;4.920;2023-07-29T09:57:53;23.20;99.10
17370;DHT22;8802;52.402;4.920;2023-07-29T10:00:21;23.30;98.90
17370;DHT22;8802;52.402;4.920;2023-07-29T10:02:48;23.30;98.80
17370;DHT22;8802;52.402;4.920;2023-07-29T10:05:15;23.40;98.70
17370;DHT22;8802;52.402;4.920;2023-07-29T10:07:42;23.40;98.60
17370;DHT22;8802;52.402;4.920;2023-07-29T10:10:10;23.50;98.80
17370;DHT22;8802;52.402;4.920;2023-07-29T10:12:42;23.50;98.70
17370;DHT22;8802;52.402;4.920;2023-07-29T10:15:10;23.60;98.70
17370;DHT22;8802;52.402;4.920;2023-07-29T10:17:40;23.70;98.40
17370;DHT22;8802;52.402;4.920;2023-07-29T10:20:09;23.80;98.10
17370;DHT22;8802;52.402;4.920;2023-07-29T10:22:38;23.90;97.70
17370;DHT22;8802;52.402;4.920;2023-07-29T10:25:08;23.90;97.60
17370;DHT22;8802;52.402;4.920;2023-07-29T10:27:44;24.00;97.70
17370;DHT22;8802;52.402;4.920;2023-07-29T10:30:14;24.10;97.50
17370;DHT22;8802;52.402;4.920;2023-07-29T10:32:42;24.10;97.60
17370;DHT22;8802;52.402;4.920;2023-07-29T10:35:11;24.10;97.40
17370;DHT22;8802;52.402;4.920;2023-07-29T10:37:38;24.20;97.40
17370;DHT22;8802;52.402;4.920;2023-07-29T10:40:07;24.20;97.40
17370;DHT22;8802;52.402;4.920;2023-07-29T10:42:35;24.20;97.00
17370;DHT22;8802;52.402;4.920;2023-07-29T10:45:21;24.30;97.10
17370;DHT22;8802;52.402;4.920;2023-07-29T10:47:49;24.30;97.40
17370;DHT22;8802;52.402;4.920;2023-07-29T10:50:21;24.30;97.80
17370;DHT22;8802;52.402;4.920;2023-07-29T10:52:50;24.30;98.10
17370;DHT22;8802;52.402;4.920;2023-07-29T10:55:29;24.30;97.90
17370;DHT22;8802;52.402;4.920;2023-07-29T10:58:14;24.30;98.20
17370;DHT22;8802;52.402;4.920;2023-07-29T11:00:44;24.30;98.20
17370;DHT22;8802;52.402;4.920;2023-07-29T11:03:12;24.30;97.70
17370;DHT22;8802;52.402;4.920;2023-07-29T11:05:47;24.30;97.40
17370;DHT22;8802;52.402;4.920;2023-07-29T11:08:18;24.30;97.30
17370;DHT22;8802;52.402;4.920;2023-07-29T11:10:58;24.30;96.70
17370;DHT22;8802;52.402;4.920;2023-07-29T11:13:26;24.40;96.80
17370;DHT22;8802;52.402;4.920;2023-07-29T11:15:57;24.40;97.10
17370;DHT22;8802;52.402;4.920;2023-07-29T11:18:27;24.40;97.00
17370;DHT22;8802;52.402;4.920;2023-07-29T11:20:55;24.40;97.30
17370;DHT22;8802;52.402;4.920;2023-07-29T11:23:28;24.50;97.20
17370;DHT22;8802;52.402;4.920;2023-07-29T11:25:55;24.50;96.60
17370;DHT22;8802;52.402;4.920;2023-07-29T11:28:22;24.50;96.60
17370;DHT22;8802;52.402;4.920;2023-07-29T11:30:49;24.60;96.40
17370;DHT22;8802;52.402;4.920;2023-07-29T11:33:20;24.60;96.40
17370;DHT22;8802;52.402;4.920;2023-07-29T11:35:47;24.60;96.30
17370;DHT22;8802;52.402;4.920;2023-07-29T11:38:17;24.60;96.40
17370;DHT22;8802;52.402;4.920;2023-07-29T11:40:54;24.60;96.70
17370;DHT22;8802;52.402;4.920;2023-07-29T11:43:21;24.70;96.60
17370;DHT22;8802;52.402;4.920;2023-07-29T11:45:48;24.70;96.50
17370;DHT22;8802;52.402;4.920;2023-07-29T11:48:15;24.70;96.50
17370;DHT22;8802;52.402;4.920;2023-07-29T11:50:45;24.70;96.60
17370;DHT22;8802;52.402;4.920;2023-07-29T11:53:12;24.70;96.20
17370;DHT22;8802;52.402;4.920;2023-07-29T11:55:39;24.80;96.10
17370;DHT22;8802;52.402;4.920;2023-07-29T11:58:06;24.80;96.40
17370;DHT22;8802;52.402;4.920;2023-07-29T12:00:33;24.80;96.70
17370;DHT22;8802;52.402;4.920;2023-07-29T12:03:01;24.80;96.70
17370;DHT22;8802;52.402;4.920;2023-07-29T12:05:28;24.80;96.90
17370;DHT22;8802;52.402;4.920;2023-07-29T12:07:57;24.80;97.10
17370;DHT22;8802;52.402;4.920;2023-07-29T12:10:25;24.80;97.20
17370;DHT22;8802;52.402;4.920;2023-07-29T12:12:52;24.80;97.20
17370;DHT22;8802;52.402;4.920;2023-07-29T12:15:26;24.70;97.60
17370;DHT22;8802;52.402;4.920;2023-07-29T12:17:54;24.70;97.70
17370;DHT22;8802;52.402;4.920;2023-07-29T12:20:24;24.70;98.20
17370;DHT22;8802;52.402;4.920;2023-07-29T12:22:52;24.60;98.20
17370;DHT22;8802;52.402;4.920;2023-07-29T12:25:22;24.60;98.30
17370;DHT22;8802;52.402;4.920;2023-07-29T12:27:49;24.60;98.10
17370;DHT22;8802;52.402;4.920;2023-07-29T12:30:16;24.60;98.00
17370;DHT22;8802;52.402;4.920;2023-07-29T12:32:46;24.60;97.80
17370;DHT22;8802;52.402;4.920;2023-07-29T12:35:14;24.50;97.90
17370;DHT22;8802;52.402;4.920;2023-07-29T12:37:41;24.50;98.10
17370;DHT22;8802;52.402;4.920;2023-07-29T12:40:22;24.50;98.50
17370;DHT22;8802;52.402;4.920;2023-07-29T12:42:50;24.50;98.10
17370;DHT22;8802;52.402;4.920;2023-07-29T12:45:17;24.60;97.80
17370;DHT22;8802;52.402;4.920;2023-07-29T12:47:44;24.60;98.00
17370;DHT22;8802;52.402;4.920;2023-07-29T12:50:11;24.70;97.60
17370;DHT22;8802;52.402;4.920;2023-07-29T12:52:38;24.70;97.60
17370;DHT22;8802;52.402;4.920;2023-07-29T12:55:06;24.70;97.40
17370;DHT22;8802;52.402;4.920;2023-07-29T12:57:40;24.80;97.60
17370;DHT22;8802;52.402;4.920;2023-07-29T13:00:08;24.80;97.20
17370;DHT22;8802;52.402;4.920;2023-07-29T13:02:35;24.80;97.20
17370;DHT22;8802;52.402;4.920;2023-07-29T13:05:03;24.90;97.00
17370;DHT22;8802;52.402;4.920;2023-07-29T13:07:30;25.00;97.10
17370;DHT22;8802;52.402;4.920;2023-07-29T13:09:57;25.00;97.20
17370;DHT22;8802;52.402;4.920;2023-07-29T13:12:24;25.00;96.70
17370;DHT22;8802;52.402;4.920;2023-07-29T13:14:52;25.10;96.70
17370;DHT22;8802;52.402;4.920;2023-07-29T13:17:20;25.10;96.50
17370;DHT22;8802;52.402;4.920;2023-07-29T13:19:47;25.20;96.80
17370;DHT22;8802;52.402;4.920;2023-07-29T13:22:14;25.30;96.40
17370;DHT22;8802;52.402;4.920;2023-07-29T13:24:41;25.30;95.90
17370;DHT22;8802;52.402;4.920;2023-07-29T13:27:08;25.40;95.60
17370;DHT22;8802;52.402;4.920;2023-07-29T13:29:35;25.50;95.90
17370;DHT22;8802;52.402;4.920;2023-07-29T13:32:04;25.50;95.70
17370;DHT22;8802;52.402;4.920;2023-07-29T13:34:32;25.50;95.40
17370;DHT22;8802;52.402;4.920;2023-07-29T13:36:59;25.60;95.50
17370;DHT22;8802;52.402;4.920;2023-07-29T13:39:26;25.50;95.40
17370;DHT22;8802;52.402;4.920;2023-07-29T13:41:54;25.60;95.30
17370;DHT22;8802;52.402;4.920;2023-07-29T13:44:21;25.60;95.40
17370;DHT22;8802;52.402;4.920;2023-07-29T13:46:48;25.60;94.90
17370;DHT22;8802;52.402;4.920;2023-07-29T13:49:17;25.70;95.00
17370;DHT22;8802;52.402;4.920;2023-07-29T13:51:44;25.60;94.70
17370;DHT22;8802;52.402;4.920;2023-07-29T13:54:11;25.60;94.60
17370;DHT22;8802;52.402;4.920;2023-07-29T13:56:38;25.60;94.70
17370;DHT22;8802;52.402;4.920;2023-07-29T13:59:05;25.60;95.10
17370;DHT22;8802;52.402;4.920;2023-07-29T14:01:32;25.60;94.80
17370;DHT22;8802;52.402;4.920;2023-07-29T14:03:59;25.60;94.60
17370;DHT22;8802;52.402;4.920;2023-07-29T14:06:27;25.70;94.60
17370;DHT22;8802;52.402;4.920;2023-07-29T14:08:54;25.70;94.50
17370;DHT22;8802;52.402;4.920;2023-07-29T14:11:21;25.70;94.50
17370;DHT22;8802;52.402;4.920;2023-07-29T14:13:48;25.70;94.60
17370;DHT22;8802;52.402;4.920;2023-07-29T14:16:15;25.70;94.30
17370;DHT22;8802;52.402;4.920;2023-07-29T14:18:42;25.70;94.30
17370;DHT22;8802;52.402;4.920;2023-07-29T14:21:08;25.70;94.00
17370;DHT22;8802;52.402;4.920;2023-07-29T14:23:37;25.70;94.00
17370;DHT22;8802;52.402;4.920;2023-07-29T14:26:04;25.70;93.90
17370;DHT22;8802;52.402;4.920;2023-07-29T14:28:31;25.70;94.00
17370;DHT22;8802;52.402;4.920;2023-07-29T14:30:58;25.70;94.00
17370;DHT22;8802;52.402;4.920;2023-07-29T14:33:25;25.70;93.70
17370;DHT22;8802;52.402;4.920;2023-07-29T14:35:52;25.70;93.50
17370;DHT22;8802;52.402;4.920;2023-07-29T14:38:19;25.70;93.80
17370;DHT22;8802;52.402;4.920;2023-07-29T14:40:48;25.70;93.30
17370;DHT22;8802;52.402;4.920;2023-07-29T14:43:16;25.70;93.30
17370;DHT22;8802;52.402;4.920;2023-07-29T14:45:43;25.70;93.30
17370;DHT22;8802;52.402;4.920;2023-07-29T14:48:10;25.70;93.30
17370;DHT22;8802;52.402;4.920;2023-07-29T14:50:37;25.70;93.10
17370;DHT22;8802;52.402;4.920;2023-07-29T14:53:04;25.70;93.20
17370;DHT22;8802;52.402;4.920;2023-07-29T14:55:31;25.70;92.90
17370;DHT22;8802;52.402;4.920;2023-07-29T14:57:59;25.70;92.40
17370;DHT22;8802;52.402;4.920;2023-07-29T15:00:27;25.60;92.00
17370;DHT22;8802;52.402;4.920;2023-07-29T15:02:54;25.60;91.60
17370;DHT22;8802;52.402;4.920;2023-07-29T15:05:21;25.60;91.70
17370;DHT22;8802;52.402;4.920;2023-07-29T15:07:48;25.60;91.50
17370;DHT22;8802;52.402;4.920;2023-07-29T15:10:15;25.60;91.50
17370;DHT22;8802;52.402;4.920;2023-07-29T15:12:43;25.50;91.70
17370;DHT22;8802;52.402;4.920;2023-07-29T15:15:12;25.50;91.80
17370;DHT22;8802;52.402;4.920;2023-07-29T15:17:39;25.50;91.60
17370;DHT22;8802;52.402;4.920;2023-07-29T15:20:06;25.50;91.50
17370;DHT22;8802;52.402;4.920;2023-07-29T15:22:33;25.50;91.60
17370;DHT22;8802;52.402;4.920;2023-07-29T15:25:00;25.50;91.20
17370;DHT22;8802;52.402;4.920;2023-07-29T15:27:27;25.50;91.30
17370;DHT22;8802;52.402;4.920;2023-07-29T15:29:55;25.40;91.00
17370;DHT22;8802;52.402;4.920;2023-07-29T15:32:23;25.50;91.30
17370;DHT22;8802;52.402;4.920;2023-07-29T15:34:51;25.40;90.90
17370;DHT22;8802;52.402;4.920;2023-07-29T15:37:18;25.40;90.90
17370;DHT22;8802;52.402;4.920;2023-07-29T15:39:45;25.40;91.10
17370;DHT22;8802;52.402;4.920;2023-07-29T15:42:12;25.40;91.10
17370;DHT22;8802;52.402;4.920;2023-07-29T15:44:39;25.30;90.90
17370;DHT22;8802;52.402;4.920;2023-07-29T15:47:06;25.30;90.50
17370;DHT22;8802;52.402;4.920;2023-07-29T15:49:35;25.30;90.80